Weatherby, Missouri
Current Conditions -  °F | °C
As of 11:53 AM on Thursday 23 Oct 2014 (Local Time) from KSTJ Reporting Station
Overcast Overcast  
Wind Chill: 64°   Ceiling: 1500
Heat Index: 64°   Visibility: 10mi
Dew Point: 61°   Wind: 7mph
Humidity: 90%   Direction: 200°SSW
Pressure: 30.09"   Gusts: NA
Location:  39.91°N, 94.24°W
Report Text: KSTJ 231653Z 20006KT 10SM OVC015 18/16 A3009 RMK AO2 SLP186 T01780161
Loading
Personal Weather Stations






























Interactive Weather Map
Tropical Storm Tracking
New forecast layout! Learn more

10-Day Weather Forecast

Advertisements
Track Severe Weather on mobile